Circle Line Bronx — WDJ2555 — position and weather

sailwx.info

Track history (hours):
 
Tides and Currents Weather Stations Pressure Air Temp Water Temp Dewpoint Dewpoint Depression Visibility Wind Speed Wind Dir Waves Ship Positions

Circle Line Bronx

Owner: Circle Line Sightseeing Yachts Inc., New York, NY. More information available from US FCC via Universal Licensing System and Coast Guard Vessel Documentation Center.

Last reported at 2018-Apr-23 01:00 UTC. Time now 2018-Apr-23 21:28 UTC.
Position N 40°46' W 074°00'.

Length 47 m; draft 2.1 m.

Type: Passenger vessel. MMSI: 367759510.

Date/timePositionNaut miles runAvg speedWind from/ knotsBaromVisibWave heightAir tempDewpointWater temp
2018-Apr-23 01:00N 40°46' W 074°00'3 5.9
2018-Apr-23 00:30N 40°43' W 074°01'3 6.0
2018-Apr-23 00:00N 40°44' W 073°58'4 8.4
2018-Apr-22 23:30N 40°42' W 074°02'4 8.7
2018-Apr-22 23:00N 40°46' W 074°00'0 0.0
2018-Apr-22 22:30N 40°46' W 074°00'0 0.0
2018-Apr-22 22:00N 40°46' W 074°00'0 0.0
2018-Apr-22 21:30N 40°46' W 074°00'0 0.0
2018-Apr-22 20:59N 40°46' W 074°00'0 0.0
2018-Apr-22 20:29N 40°46' W 074°00'0 0.0
2018-Apr-22 20:00N 40°46' W 074°00'0 0.0
2018-Apr-22 19:30N 40°46' W 074°00'5 9.5
2018-Apr-22 19:00N 40°41' W 074°02'5 5.1
2018-Apr-22 18:04N 40°46' W 074°00'0 0.0
2018-Apr-22 17:58N 40°46' W 074°00'0 0.0
2018-Apr-22 17:30N 40°46' W 074°00'0 0.0
2018-Apr-22 16:58N 40°46' W 074°00'0 0.0
2018-Apr-22 16:26N 40°46' W 074°00'0 0.0
2018-Apr-22 15:56N 40°46' W 074°00'0 0.0
2018-Apr-22 15:30N 40°46' W 074°00'5 9.2
2018-Apr-22 15:00N 40°42' W 074°02'5 5.9
2018-Apr-22 14:15N 40°46' W 074°00'0 0.0
2018-Apr-22 13:55N 40°46' W 074°00'0 0.0
2018-Apr-22 13:29N 40°46' W 074°00'0 0.0
2018-Apr-22 13:00N 40°46' W 074°00'0 0.0
2018-Apr-22 12:30N 40°46' W 074°00'0 0.0
2018-Apr-22 12:00N 40°46' W 074°00'0 0.0
2018-Apr-22 11:30N 40°46' W 074°00'0 0.0
2018-Apr-22 10:58N 40°46' W 074°00'0 0.0
2018-Apr-22 00:51N 40°46' W 074°00'3 7.8
2018-Apr-22 00:30N 40°43' W 074°01'3 5.8
2018-Apr-22 00:00N 40°44' W 073°58'5 9.8
2018-Apr-21 23:30N 40°41' W 074°03'5 9.5
2018-Apr-21 22:59N 40°46' W 074°00'0 0.0
2018-Apr-21 22:30N 40°46' W 074°00'0 0.0
2018-Apr-21 22:00N 40°46' W 074°00'0 0.0
2018-Apr-21 21:28N 40°46' W 074°00'0 0.0
2018-Apr-21 21:00N 40°46' W 074°00'4 7.8
2018-Apr-21 20:31N 40°42' W 074°00'1 2.8
2018-Apr-21 20:01N 40°41' W 074°02'5 8.3
2018-Apr-21 19:26N 40°46' W 074°00'0 0.0
2018-Apr-21 19:00N 40°46' W 074°00'0 0.0
2018-Apr-21 18:30N 40°46' W 074°00'0 0.0
2018-Apr-21 18:00N 40°46' W 074°00'3 7.0
2018-Apr-21 17:30N 40°42' W 073°60'2 4.3
2018-Apr-21 17:00N 40°41' W 074°03'5 9.7
2018-Apr-21 16:30N 40°46' W 074°00'0 0.0
2018-Apr-21 16:00N 40°46' W 074°00'0 0.0
2018-Apr-21 15:23N 40°46' W 074°00'0 0.0
2018-Apr-21 14:53N 40°46' W 074°00'0 0.0
2018-Apr-21 14:30N 40°46' W 074°00'0 0.0
2018-Apr-21 14:00N 40°46' W 074°00'0 0.0
2018-Apr-20 19:29N 40°46' W 074°00'510.6
2018-Apr-20 19:00N 40°41' W 074°03'5 9.7
2018-Apr-20 18:29N 40°46' W 074°00'0 0.0
2018-Apr-20 18:00N 40°46' W 074°00'0 0.0
2018-Apr-20 17:30N 40°46' W 074°00'0 0.0
2018-Apr-20 17:00N 40°46' W 074°00'0 0.0
2018-Apr-20 16:30N 40°46' W 074°00'0 0.0
2018-Apr-20 15:58N 40°46' W 074°00'0 0.0
2018-Apr-20 15:30N 40°46' W 074°00'510.3
2018-Apr-20 15:01N 40°41' W 074°03'510.0
2018-Apr-20 14:30N 40°46' W 074°00'0 0.0
2018-Apr-20 13:59N 40°46' W 074°00'0 0.0
2018-Apr-20 13:30N 40°46' W 074°00'0 0.0
2018-Apr-20 13:00N 40°46' W 074°00'0 0.0
2018-Apr-20 12:29N 40°46' W 074°00'0 0.0
2018-Apr-20 12:00N 40°46' W 074°00'0 0.0
2018-Apr-20 11:30N 40°46' W 074°00'0 0.0
2018-Apr-19 19:27N 40°46' W 074°00'510.4
2018-Apr-19 19:00N 40°41' W 074°02'5 9.1
2018-Apr-19 18:30N 40°46' W 074°00'0 0.0
2018-Apr-19 18:00N 40°46' W 074°00'0 0.0
2018-Apr-19 17:30N 40°46' W 074°00'0 0.0
2018-Apr-19 17:00N 40°46' W 074°00'0 0.0
2018-Apr-19 16:30N 40°46' W 074°00'0 0.0
2018-Apr-19 16:00N 40°46' W 074°00'0 0.0
2018-Apr-19 15:29N 40°46' W 074°00'510.2
2018-Apr-19 15:00N 40°41' W 074°02'5 9.8
2018-Apr-19 14:30N 40°46' W 074°00'0 0.0
2018-Apr-19 14:00N 40°46' W 074°00'0 0.0
2018-Apr-19 13:30N 40°46' W 074°00'0 0.0
2018-Apr-19 13:00N 40°46' W 074°00'0 0.0
2018-Apr-19 12:30N 40°46' W 074°00'0 0.0
2018-Apr-19 12:00N 40°46' W 074°00'0 0.0
2018-Apr-19 11:29N 40°46' W 074°00'0 0.0
2018-Apr-19 00:51N 40°46' W 074°00'3 8.9
2018-Apr-19 00:30N 40°43' W 074°01'3 6.1
2018-Apr-19 00:00N 40°45' W 073°58'5 9.7
2018-Apr-18 23:30N 40°41' W 074°03'5 9.6
2018-Apr-18 23:00N 40°46' W 074°00'0 0.0
2018-Apr-18 22:28N 40°46' W 074°00'0 0.0
2018-Apr-18 22:00N 40°46' W 074°00'0 0.0
2018-Apr-18 21:28N 40°46' W 074°00'0 0.2
2018-Apr-18 21:00N 40°46' W 074°00'3 6.9
2018-Apr-18 20:30N 40°43' W 073°59'3 6.7
2018-Apr-18 20:00N 40°41' W 074°03'510.0
2018-Apr-18 19:30N 40°46' W 074°00'0 0.0
2018-Apr-18 19:00N 40°46' W 074°00'0 0.0
2018-Apr-18 18:30N 40°46' W 074°00'0 0.0
2018-Apr-18 18:00N 40°46' W 074°00'3 6.8
2018-Apr-18 17:31N 40°43' W 073°59'3 6.1
2018-Apr-18 17:00N 40°41' W 074°03'5 9.8
2018-Apr-18 16:31N 40°46' W 074°00'0 0.0
2018-Apr-18 16:00N 40°46' W 074°00'0 0.0
2018-Apr-18 15:28N 40°46' W 074°00'0 0.0
2018-Apr-18 15:00N 40°46' W 074°00'0 0.0
2018-Apr-18 14:30N 40°46' W 074°00'0 0.0
2018-Apr-18 14:00N 40°46' W 074°00'0 0.0
2018-Apr-18 13:31N 40°46' W 074°00'0 0.0
2018-Apr-18 13:00N 40°46' W 074°00'0 0.0
2018-Apr-18 12:30N 40°46' W 074°00'0 0.0
2018-Apr-18 12:00N 40°46' W 074°00'0 0.0
2018-Apr-18 00:49N 40°46' W 074°00'3 8.3
2018-Apr-18 00:30N 40°43' W 074°01'3 5.0
2018-Apr-18 00:00N 40°44' W 073°58'5 8.9
2018-Apr-17 23:30N 40°41' W 074°03'5 9.9
2018-Apr-17 23:00N 40°46' W 074°00'0 0.0
2018-Apr-17 22:30N 40°46' W 074°00'0 0.0
2018-Apr-17 21:30N 40°46' W 074°00'0 0.0
2018-Apr-17 20:59N 40°46' W 074°00'4 8.1
2018-Apr-17 20:30N 40°42' W 074°01'1 1.9
2018-Apr-17 20:00N 40°41' W 074°02'5 9.0
2018-Apr-17 19:30N 40°46' W 074°00'0 0.0
2018-Apr-17 19:00N 40°46' W 074°00'0 0.0
2018-Apr-17 18:30N 40°46' W 074°00'0 0.0
2018-Apr-17 18:00N 40°46' W 074°00'3 6.9
2018-Apr-17 17:30N 40°42' W 073°60'3 5.1
2018-Apr-17 17:00N 40°41' W 074°02'5 9.8
2018-Apr-17 16:30N 40°46' W 074°00'0 0.0
2018-Apr-17 16:00N 40°46' W 074°00'0 0.0
2018-Apr-17 15:30N 40°46' W 074°00'0 0.0
2018-Apr-17 15:00N 40°46' W 074°00'0 0.0
2018-Apr-17 14:30N 40°46' W 074°00'0 0.0
2018-Apr-17 14:00N 40°46' W 074°00'0 0.0
2018-Apr-17 13:30N 40°46' W 074°00'0 0.0
2018-Apr-16 19:31N 40°46' W 074°00'0 0.0
2018-Apr-16 19:30N 40°46' W 074°00'5 9.8
2018-Apr-16 19:00N 40°41' W 074°03'5 9.8
2018-Apr-16 18:30N 40°46' W 074°00'0 0.0
2018-Apr-16 18:00N 40°46' W 074°00'0 0.0
2018-Apr-16 17:30N 40°46' W 074°00'0 0.0
2018-Apr-16 17:00N 40°46' W 074°00'0 0.0
2018-Apr-16 16:30N 40°46' W 074°00'0 0.0
2018-Apr-16 16:00N 40°46' W 074°00'0 0.0
2018-Apr-16 15:29N 40°46' W 074°00'5 9.7
2018-Apr-16 15:00N 40°41' W 074°02'5 9.2
2018-Apr-16 14:30N 40°46' W 074°00'0 0.0
2018-Apr-15 19:38N 40°46' W 074°00'0 0.0
2018-Apr-15 19:30N 40°46' W 074°00'5 9.7
2018-Apr-15 19:00N 40°41' W 074°02'5 9.5
2018-Apr-15 18:30N 40°46' W 074°00'0 0.1
2018-Apr-15 18:00N 40°46' W 074°00'0 0.1
2018-Apr-15 17:30N 40°46' W 074°00'0 0.0
2018-Apr-15 17:00N 40°46' W 074°00'0 0.0
2018-Apr-15 16:30N 40°46' W 074°00'0 0.0
2018-Apr-15 16:00N 40°46' W 074°00'0 0.0
2018-Apr-15 15:29N 40°46' W 074°00'3 7.1
2018-Apr-15 15:01N 40°43' W 073°59'3 5.6
2018-Apr-15 14:30N 40°41' W 074°02'5 9.1
2018-Apr-15 14:00N 40°46' W 074°00'0 0.0
2018-Apr-15 13:30N 40°46' W 074°00'0 0.0
2018-Apr-15 13:00N 40°46' W 074°00'0 0.0
2018-Apr-15 12:30N 40°46' W 074°00'0 0.0
2018-Apr-15 12:00N 40°46' W 074°00'0 0.0
2018-Apr-15 00:43N 40°46' W 074°00'1 4.9
2018-Apr-15 00:30N 40°45' W 074°01'3 5.6
2018-Apr-15 00:00N 40°43' W 073°58'2 5.0
2018-Apr-14 23:31N 40°42' W 074°01'4 7.3
2018-Apr-14 23:00N 40°45' W 074°01'1 1.3
2018-Apr-14 22:30N 40°46' W 074°00'0 0.0
2018-Apr-14 22:00N 40°46' W 074°00'0 0.0
2018-Apr-14 21:30N 40°46' W 074°00'0 0.0
2018-Apr-14 21:00N 40°46' W 074°00'0 0.1
2018-Apr-14 20:30N 40°46' W 074°00'0 0.1
2018-Apr-14 20:00N 40°46' W 074°00'0 0.1
2018-Apr-14 19:30N 40°46' W 074°00'5 9.6
2018-Apr-14 19:00N 40°41' W 074°02'5 9.4
2018-Apr-14 18:30N 40°46' W 074°00'0 0.0
2018-Apr-14 18:00N 40°46' W 074°00'0 0.0
2018-Apr-14 17:30N 40°46' W 074°00'0 0.0
2018-Apr-14 17:00N 40°46' W 074°00'0 0.0
2018-Apr-14 16:30N 40°46' W 074°00'0 0.0
2018-Apr-14 16:00N 40°46' W 074°00'0 0.0
2018-Apr-14 15:30N 40°46' W 074°00'5 9.6
2018-Apr-14 15:00N 40°41' W 074°02'5 9.5
2018-Apr-14 14:30N 40°46' W 074°00'0 0.0
2018-Apr-14 14:00N 40°46' W 074°00'0 0.0
2018-Apr-14 13:30N 40°46' W 074°00'0 0.0
2018-Apr-14 13:00N 40°46' W 074°00'0 0.0
2018-Apr-14 12:30N 40°46' W 074°00'0 0.0
2018-Apr-14 11:59N 40°46' W 074°00'0 0.0
2018-Apr-14 11:30N 40°46' W 074°00'0 0.0
2018-Apr-14 00:55N 40°46' W 074°00'4 9.7
2018-Apr-14 00:30N 40°42' W 074°01'2 4.8
2018-Apr-14 00:00N 40°43' W 073°58'3 5.1
2018-Apr-13 23:30N 40°43' W 074°01'3 5.6
2018-Apr-13 23:00N 40°46' W 074°00'0 0.0
2018-Apr-13 22:31N 40°46' W 074°00'0 0.0
2018-Apr-13 22:00N 40°46' W 074°00'0 0.0
2018-Apr-13 21:30N 40°46' W 074°00'0 0.0
2018-Apr-13 21:00N 40°46' W 074°00'0 0.0
2018-Apr-13 20:30N 40°46' W 074°00'0 0.0
2018-Apr-13 20:00N 40°46' W 074°00'0 0.0
2018-Apr-13 19:30N 40°46' W 074°00'5 9.5
2018-Apr-13 19:01N 40°41' W 074°02'5 9.5
2018-Apr-13 18:30N 40°46' W 074°00'0 0.0
2018-Apr-13 18:00N 40°46' W 074°00'0 0.0
2018-Apr-13 17:30N 40°46' W 074°00'0 0.0
2018-Apr-13 17:00N 40°46' W 074°00'0 0.0
2018-Apr-13 16:30N 40°46' W 074°00'0 0.0
2018-Apr-13 16:00N 40°46' W 074°00'0 0.0
2018-Apr-13 15:30N 40°46' W 074°00'5 9.8
2018-Apr-13 15:00N 40°41' W 074°03'5 9.5
2018-Apr-13 14:30N 40°46' W 074°00'0 0.0
2018-Apr-13 14:00N 40°46' W 074°00'0 0.0
2018-Apr-13 13:30N 40°46' W 074°00'0 0.1
2018-Apr-13 13:00N 40°46' W 074°00'0 0.1
2018-Apr-13 12:30N 40°46' W 074°00'0 0.0
2018-Apr-13 12:00N 40°46' W 074°00'  
Track history (hours):
 
Tides and Currents Weather Stations Pressure Air Temp Water Temp Dewpoint Dewpoint Depression Visibility Wind Speed Wind Dir Waves Ship Positions

Circle Line Bronx

Owner: Circle Line Sightseeing Yachts Inc., New York, NY. More information available from US FCC via Universal Licensing System and Coast Guard Vessel Documentation Center.

Last reported at 2018-Apr-23 01:00 UTC. Time now 2018-Apr-23 21:28 UTC.
Position N 40°46' W 074°00'.

Length 47 m; draft 2.1 m.

Type: Passenger vessel. MMSI: 367759510.

Date/timePositionNaut miles runAvg speedWind from/ knotsBaromVisibWave heightAir tempDewpointWater temp
2018-Apr-23 01:00N 40°46' W 074°00'3 5.9
2018-Apr-23 00:30N 40°43' W 074°01'3 6.0
2018-Apr-23 00:00N 40°44' W 073°58'4 8.4
2018-Apr-22 23:30N 40°42' W 074°02'4 8.7
2018-Apr-22 23:00N 40°46' W 074°00'0 0.0
2018-Apr-22 22:30N 40°46' W 074°00'0 0.0
2018-Apr-22 22:00N 40°46' W 074°00'0 0.0
2018-Apr-22 21:30N 40°46' W 074°00'0 0.0
2018-Apr-22 20:59N 40°46' W 074°00'0 0.0
2018-Apr-22 20:29N 40°46' W 074°00'0 0.0
2018-Apr-22 20:00N 40°46' W 074°00'0 0.0
2018-Apr-22 19:30N 40°46' W 074°00'5 9.5
2018-Apr-22 19:00N 40°41' W 074°02'5 5.1
2018-Apr-22 18:04N 40°46' W 074°00'0 0.0
2018-Apr-22 17:58N 40°46' W 074°00'0 0.0
2018-Apr-22 17:30N 40°46' W 074°00'0 0.0
2018-Apr-22 16:58N 40°46' W 074°00'0 0.0
2018-Apr-22 16:26N 40°46' W 074°00'0 0.0
2018-Apr-22 15:56N 40°46' W 074°00'0 0.0
2018-Apr-22 15:30N 40°46' W 074°00'5 9.2
2018-Apr-22 15:00N 40°42' W 074°02'5 5.9
2018-Apr-22 14:15N 40°46' W 074°00'0 0.0
2018-Apr-22 13:55N 40°46' W 074°00'0 0.0
2018-Apr-22 13:29N 40°46' W 074°00'0 0.0
2018-Apr-22 13:00N 40°46' W 074°00'0 0.0
2018-Apr-22 12:30N 40°46' W 074°00'0 0.0
2018-Apr-22 12:00N 40°46' W 074°00'0 0.0
2018-Apr-22 11:30N 40°46' W 074°00'0 0.0
2018-Apr-22 10:58N 40°46' W 074°00'0 0.0
2018-Apr-22 00:51N 40°46' W 074°00'3 7.8
2018-Apr-22 00:30N 40°43' W 074°01'3 5.8
2018-Apr-22 00:00N 40°44' W 073°58'5 9.8
2018-Apr-21 23:30N 40°41' W 074°03'5 9.5
2018-Apr-21 22:59N 40°46' W 074°00'0 0.0
2018-Apr-21 22:30N 40°46' W 074°00'0 0.0
2018-Apr-21 22:00N 40°46' W 074°00'0 0.0
2018-Apr-21 21:28N 40°46' W 074°00'0 0.0
2018-Apr-21 21:00N 40°46' W 074°00'4 7.8
2018-Apr-21 20:31N 40°42' W 074°00'1 2.8
2018-Apr-21 20:01N 40°41' W 074°02'5 8.3
2018-Apr-21 19:26N 40°46' W 074°00'0 0.0
2018-Apr-21 19:00N 40°46' W 074°00'0 0.0
2018-Apr-21 18:30N 40°46' W 074°00'0 0.0
2018-Apr-21 18:00N 40°46' W 074°00'3 7.0
2018-Apr-21 17:30N 40°42' W 073°60'2 4.3
2018-Apr-21 17:00N 40°41' W 074°03'5 9.7
2018-Apr-21 16:30N 40°46' W 074°00'0 0.0
2018-Apr-21 16:00N 40°46' W 074°00'0 0.0
2018-Apr-21 15:23N 40°46' W 074°00'0 0.0
2018-Apr-21 14:53N 40°46' W 074°00'0 0.0
2018-Apr-21 14:30N 40°46' W 074°00'0 0.0
2018-Apr-21 14:00N 40°46' W 074°00'0 0.0
2018-Apr-20 19:29N 40°46' W 074°00'510.6
2018-Apr-20 19:00N 40°41' W 074°03'5 9.7
2018-Apr-20 18:29N 40°46' W 074°00'0 0.0
2018-Apr-20 18:00N 40°46' W 074°00'0 0.0
2018-Apr-20 17:30N 40°46' W 074°00'0 0.0
2018-Apr-20 17:00N 40°46' W 074°00'0 0.0
2018-Apr-20 16:30N 40°46' W 074°00'0 0.0
2018-Apr-20 15:58N 40°46' W 074°00'0 0.0
2018-Apr-20 15:30N 40°46' W 074°00'510.3
2018-Apr-20 15:01N 40°41' W 074°03'510.0
2018-Apr-20 14:30N 40°46' W 074°00'0 0.0
2018-Apr-20 13:59N 40°46' W 074°00'0 0.0
2018-Apr-20 13:30N 40°46' W 074°00'0 0.0
2018-Apr-20 13:00N 40°46' W 074°00'0 0.0
2018-Apr-20 12:29N 40°46' W 074°00'0 0.0
2018-Apr-20 12:00N 40°46' W 074°00'0 0.0
2018-Apr-20 11:30N 40°46' W 074°00'0 0.0
2018-Apr-19 19:27N 40°46' W 074°00'510.4
2018-Apr-19 19:00N 40°41' W 074°02'5 9.1
2018-Apr-19 18:30N 40°46' W 074°00'0 0.0
2018-Apr-19 18:00N 40°46' W 074°00'0 0.0
2018-Apr-19 17:30N 40°46' W 074°00'0 0.0
2018-Apr-19 17:00N 40°46' W 074°00'0 0.0
2018-Apr-19 16:30N 40°46' W 074°00'0 0.0
2018-Apr-19 16:00N 40°46' W 074°00'0 0.0
2018-Apr-19 15:29N 40°46' W 074°00'510.2
2018-Apr-19 15:00N 40°41' W 074°02'5 9.8
2018-Apr-19 14:30N 40°46' W 074°00'0 0.0
2018-Apr-19 14:00N 40°46' W 074°00'0 0.0
2018-Apr-19 13:30N 40°46' W 074°00'0 0.0
2018-Apr-19 13:00N 40°46' W 074°00'0 0.0
2018-Apr-19 12:30N 40°46' W 074°00'0 0.0
2018-Apr-19 12:00N 40°46' W 074°00'0 0.0
2018-Apr-19 11:29N 40°46' W 074°00'0 0.0
2018-Apr-19 00:51N 40°46' W 074°00'3 8.9
2018-Apr-19 00:30N 40°43' W 074°01'3 6.1
2018-Apr-19 00:00N 40°45' W 073°58'5 9.7
2018-Apr-18 23:30N 40°41' W 074°03'5 9.6
2018-Apr-18 23:00N 40°46' W 074°00'0 0.0
2018-Apr-18 22:28N 40°46' W 074°00'0 0.0
2018-Apr-18 22:00N 40°46' W 074°00'0 0.0
2018-Apr-18 21:28N 40°46' W 074°00'0 0.2
2018-Apr-18 21:00N 40°46' W 074°00'3 6.9
2018-Apr-18 20:30N 40°43' W 073°59'3 6.7
2018-Apr-18 20:00N 40°41' W 074°03'510.0
2018-Apr-18 19:30N 40°46' W 074°00'0 0.0
2018-Apr-18 19:00N 40°46' W 074°00'0 0.0
2018-Apr-18 18:30N 40°46' W 074°00'0 0.0
2018-Apr-18 18:00N 40°46' W 074°00'3 6.8
2018-Apr-18 17:31N 40°43' W 073°59'3 6.1
2018-Apr-18 17:00N 40°41' W 074°03'5 9.8
2018-Apr-18 16:31N 40°46' W 074°00'0 0.0
2018-Apr-18 16:00N 40°46' W 074°00'0 0.0
2018-Apr-18 15:28N 40°46' W 074°00'0 0.0
2018-Apr-18 15:00N 40°46' W 074°00'0 0.0
2018-Apr-18 14:30N 40°46' W 074°00'0 0.0
2018-Apr-18 14:00N 40°46' W 074°00'0 0.0
2018-Apr-18 13:31N 40°46' W 074°00'0 0.0
2018-Apr-18 13:00N 40°46' W 074°00'0 0.0
2018-Apr-18 12:30N 40°46' W 074°00'0 0.0
2018-Apr-18 12:00N 40°46' W 074°00'0 0.0
2018-Apr-18 00:49N 40°46' W 074°00'3 8.3
2018-Apr-18 00:30N 40°43' W 074°01'3 5.0
2018-Apr-18 00:00N 40°44' W 073°58'5 8.9
2018-Apr-17 23:30N 40°41' W 074°03'5 9.9
2018-Apr-17 23:00N 40°46' W 074°00'0 0.0
2018-Apr-17 22:30N 40°46' W 074°00'0 0.0
2018-Apr-17 21:30N 40°46' W 074°00'0 0.0
2018-Apr-17 20:59N 40°46' W 074°00'4 8.1
2018-Apr-17 20:30N 40°42' W 074°01'1 1.9
2018-Apr-17 20:00N 40°41' W 074°02'5 9.0
2018-Apr-17 19:30N 40°46' W 074°00'0 0.0
2018-Apr-17 19:00N 40°46' W 074°00'0 0.0
2018-Apr-17 18:30N 40°46' W 074°00'0 0.0
2018-Apr-17 18:00N 40°46' W 074°00'3 6.9
2018-Apr-17 17:30N 40°42' W 073°60'3 5.1
2018-Apr-17 17:00N 40°41' W 074°02'5 9.8
2018-Apr-17 16:30N 40°46' W 074°00'0 0.0
2018-Apr-17 16:00N 40°46' W 074°00'0 0.0
2018-Apr-17 15:30N 40°46' W 074°00'0 0.0
2018-Apr-17 15:00N 40°46' W 074°00'0 0.0
2018-Apr-17 14:30N 40°46' W 074°00'0 0.0
2018-Apr-17 14:00N 40°46' W 074°00'0 0.0
2018-Apr-17 13:30N 40°46' W 074°00'0 0.0
2018-Apr-16 19:31N 40°46' W 074°00'0 0.0
2018-Apr-16 19:30N 40°46' W 074°00'5 9.8
2018-Apr-16 19:00N 40°41' W 074°03'5 9.8
2018-Apr-16 18:30N 40°46' W 074°00'0 0.0
2018-Apr-16 18:00N 40°46' W 074°00'0 0.0
2018-Apr-16 17:30N 40°46' W 074°00'0 0.0
2018-Apr-16 17:00N 40°46' W 074°00'0 0.0
2018-Apr-16 16:30N 40°46' W 074°00'0 0.0
2018-Apr-16 16:00N 40°46' W 074°00'0 0.0
2018-Apr-16 15:29N 40°46' W 074°00'5 9.7
2018-Apr-16 15:00N 40°41' W 074°02'5 9.2
2018-Apr-16 14:30N 40°46' W 074°00'0 0.0
2018-Apr-15 19:38N 40°46' W 074°00'0 0.0
2018-Apr-15 19:30N 40°46' W 074°00'5 9.7
2018-Apr-15 19:00N 40°41' W 074°02'5 9.5
2018-Apr-15 18:30N 40°46' W 074°00'0 0.1
2018-Apr-15 18:00N 40°46' W 074°00'0 0.1
2018-Apr-15 17:30N 40°46' W 074°00'0 0.0
2018-Apr-15 17:00N 40°46' W 074°00'0 0.0
2018-Apr-15 16:30N 40°46' W 074°00'0 0.0
2018-Apr-15 16:00N 40°46' W 074°00'0 0.0
2018-Apr-15 15:29N 40°46' W 074°00'3 7.1
2018-Apr-15 15:01N 40°43' W 073°59'3 5.6
2018-Apr-15 14:30N 40°41' W 074°02'5 9.1
2018-Apr-15 14:00N 40°46' W 074°00'0 0.0
2018-Apr-15 13:30N 40°46' W 074°00'0 0.0
2018-Apr-15 13:00N 40°46' W 074°00'0 0.0
2018-Apr-15 12:30N 40°46' W 074°00'0 0.0
2018-Apr-15 12:00N 40°46' W 074°00'0 0.0
2018-Apr-15 00:43N 40°46' W 074°00'1 4.9
2018-Apr-15 00:30N 40°45' W 074°01'3 5.6
2018-Apr-15 00:00N 40°43' W 073°58'2 5.0
2018-Apr-14 23:31N 40°42' W 074°01'4 7.3
2018-Apr-14 23:00N 40°45' W 074°01'1 1.3
2018-Apr-14 22:30N 40°46' W 074°00'0 0.0
2018-Apr-14 22:00N 40°46' W 074°00'0 0.0
2018-Apr-14 21:30N 40°46' W 074°00'0 0.0
2018-Apr-14 21:00N 40°46' W 074°00'0 0.1
2018-Apr-14 20:30N 40°46' W 074°00'0 0.1
2018-Apr-14 20:00N 40°46' W 074°00'0 0.1
2018-Apr-14 19:30N 40°46' W 074°00'5 9.6
2018-Apr-14 19:00N 40°41' W 074°02'5 9.4
2018-Apr-14 18:30N 40°46' W 074°00'0 0.0
2018-Apr-14 18:00N 40°46' W 074°00'0 0.0
2018-Apr-14 17:30N 40°46' W 074°00'0 0.0
2018-Apr-14 17:00N 40°46' W 074°00'0 0.0
2018-Apr-14 16:30N 40°46' W 074°00'0 0.0
2018-Apr-14 16:00N 40°46' W 074°00'0 0.0
2018-Apr-14 15:30N 40°46' W 074°00'5 9.6
2018-Apr-14 15:00N 40°41' W 074°02'5 9.5
2018-Apr-14 14:30N 40°46' W 074°00'0 0.0
2018-Apr-14 14:00N 40°46' W 074°00'0 0.0
2018-Apr-14 13:30N 40°46' W 074°00'0 0.0
2018-Apr-14 13:00N 40°46' W 074°00'0 0.0
2018-Apr-14 12:30N 40°46' W 074°00'0 0.0
2018-Apr-14 11:59N 40°46' W 074°00'0 0.0
2018-Apr-14 11:30N 40°46' W 074°00'0 0.0
2018-Apr-14 00:55N 40°46' W 074°00'4 9.7
2018-Apr-14 00:30N 40°42' W 074°01'2 4.8
2018-Apr-14 00:00N 40°43' W 073°58'3 5.1
2018-Apr-13 23:30N 40°43' W 074°01'3 5.6
2018-Apr-13 23:00N 40°46' W 074°00'0 0.0
2018-Apr-13 22:31N 40°46' W 074°00'0 0.0
2018-Apr-13 22:00N 40°46' W 074°00'0 0.0
2018-Apr-13 21:30N 40°46' W 074°00'0 0.0
2018-Apr-13 21:00N 40°46' W 074°00'0 0.0
2018-Apr-13 20:30N 40°46' W 074°00'0 0.0
2018-Apr-13 20:00N 40°46' W 074°00'0 0.0
2018-Apr-13 19:30N 40°46' W 074°00'5 9.5
2018-Apr-13 19:01N 40°41' W 074°02'5 9.5
2018-Apr-13 18:30N 40°46' W 074°00'0 0.0
2018-Apr-13 18:00N 40°46' W 074°00'0 0.0
2018-Apr-13 17:30N 40°46' W 074°00'0 0.0
2018-Apr-13 17:00N 40°46' W 074°00'0 0.0
2018-Apr-13 16:30N 40°46' W 074°00'0 0.0
2018-Apr-13 16:00N 40°46' W 074°00'0 0.0
2018-Apr-13 15:30N 40°46' W 074°00'5 9.8
2018-Apr-13 15:00N 40°41' W 074°03'5 9.5
2018-Apr-13 14:30N 40°46' W 074°00'0 0.0
2018-Apr-13 14:00N 40°46' W 074°00'0 0.0
2018-Apr-13 13:30N 40°46' W 074°00'0 0.1
2018-Apr-13 13:00N 40°46' W 074°00'0 0.1
2018-Apr-13 12:30N 40°46' W 074°00'0 0.0
2018-Apr-13 12:00N 40°46' W 074°00'  

Dump ship's entire track history